Time;durP1;ratioP1;P1;durP2;ratioP2;P2;SDS_P1;SDS_P2;PMS_P1;PMS_P2;Temp;Humidity;BMP_temperature;BMP_pressure;BME280_temperature;BME280_humidity;BME280_pressure;Samples;Min_cycle;Max_cycle;Signal;HPM_P1;HPM_P2
2021/05/22 00:00:08;;;;;;;454.03;325.07;;;;;;;11.44;69.08;97944.59;5035788;28;20731;-63
2021/05/22 00:02:33;;;;;;;456.13;326.43;;;;;;;11.45;69.45;97942.88;5032603;28;20029;-62
2021/05/22 00:04:59;;;;;;;457.70;330.57;;;;;;;11.57;69.08;97951.88;5031878;28;20295;-62
2021/05/22 00:07:24;;;;;;;456.73;327.30;;;;;;;11.52;68.99;97949.47;5034271;28;20422;-62
2021/05/22 00:09:49;;;;;;;455.27;332.30;;;;;;;11.52;69.13;97949.47;5033720;28;20037;-62
2021/05/22 00:12:15;;;;;;;456.20;322.27;;;;;;;11.51;69.58;97941.81;5030873;28;20036;-62
2021/05/22 00:14:40;;;;;;;454.37;325.20;;;;;;;11.55;69.82;97940.81;5033578;28;20048;-63
2021/05/22 00:17:06;;;;;;;452.27;322.17;;;;;;;11.53;69.98;97940.03;5031729;28;20029;-63
2021/05/22 00:19:32;;;;;;;453.47;322.67;;;;;;;11.46;70.56;97936.84;5030420;28;20037;-62
2021/05/22 00:21:57;;;;;;;455.77;322.57;;;;;;;11.44;70.07;97926.63;5033238;28;20049;-62
2021/05/22 00:24:23;;;;;;;459.80;332.43;;;;;;;11.51;69.78;97921.28;5032144;28;20493;-63
2021/05/22 00:26:48;;;;;;;451.83;317.33;;;;;;;11.39;71.08;97909.72;5031908;28;20325;-62
2021/05/22 00:29:14;;;;;;;452.87;317.87;;;;;;;11.30;71.29;97902.31;5019479;28;20382;-64
2021/05/22 00:31:39;;;;;;;450.57;309.53;;;;;;;11.36;70.69;97913.22;5031410;28;20037;-63
2021/05/22 00:34:05;;;;;;;449.97;310.33;;;;;;;11.37;70.91;97907.19;5033034;28;20362;-62
2021/05/22 00:36:31;;;;;;;451.37;317.63;;;;;;;11.38;70.70;97914.00;5033234;28;20026;-62
2021/05/22 00:38:57;;;;;;;453.33;319.93;;;;;;;11.28;71.89;97904.94;5033737;28;20107;-63
2021/05/22 00:41:23;;;;;;;452.67;319.60;;;;;;;11.27;71.81;97903.28;5030016;28;20704;-63
2021/05/22 00:43:48;;;;;;;454.47;318.53;;;;;;;11.23;71.66;97890.59;5033582;28;20048;-62
2021/05/22 00:46:14;;;;;;;451.77;320.43;;;;;;;11.22;72.25;97888.91;5028224;28;20287;-62
2021/05/22 00:48:39;;;;;;;453.00;323.20;;;;;;;11.27;72.07;97902.44;5032929;28;20046;-62
2021/05/22 00:51:05;;;;;;;461.63;336.17;;;;;;;11.30;71.63;97907.44;5033039;28;20142;-62
2021/05/22 00:53:31;;;;;;;455.33;329.47;;;;;;;11.27;71.96;97903.28;5031766;28;20344;-62
2021/05/22 00:56:01;;;;;;;456.67;329.77;;;;;;;11.29;71.95;97896.34;5032221;28;20215;-63
2021/05/22 00:58:26;;;;;;;453.20;329.10;;;;;;;11.25;71.91;97901.63;5035692;28;20405;-62
2021/05/22 01:00:54;;;;;;;451.97;321.97;;;;;;;11.25;72.08;97902.47;5031972;28;20268;-63
2021/05/22 01:03:25;;;;;;;452.43;323.00;;;;;;;11.26;71.85;97893.03;5029606;28;20169;-63
2021/05/22 01:05:52;;;;;;;457.63;336.70;;;;;;;11.23;72.08;97890.59;5030848;28;20271;-62
2021/05/22 01:08:23;;;;;;;455.50;326.93;;;;;;;11.22;71.46;97887.19;5031113;28;20663;-62
2021/05/22 01:11:04;;;;;;;454.80;326.60;;;;;;;11.22;71.14;97876.91;5032789;28;20280;-62
2021/05/22 01:13:35;;;;;;;456.90;333.77;;;;;;;11.17;71.85;97860.00;5027906;28;20275;-64
2021/05/22 01:16:01;;;;;;;456.00;339.43;;;;;;;11.15;72.13;97877.19;5034157;28;20664;-63
2021/05/22 01:18:27;;;;;;;456.37;331.97;;;;;;;11.14;72.03;97881.47;5030642;28;20287;-62
2021/05/22 01:20:59;;;;;;;461.33;336.77;;;;;;;11.15;72.23;97883.16;5018080;28;20249;-62
2021/05/22 01:23:40;;;;;;;454.77;325.87;;;;;;;11.17;71.64;97876.22;5033275;28;20737;-63
2021/05/22 01:26:08;;;;;;;458.10;333.83;;;;;;;11.11;71.88;97855.09;5027661;28;20265;-63
2021/05/22 01:28:34;;;;;;;459.77;329.97;;;;;;;11.05;72.44;97855.28;5026701;28;20292;-63
2021/05/22 01:31:01;;;;;;;453.40;322.33;;;;;;;10.96;72.58;97846.16;5031042;28;20536;-62
2021/05/22 01:33:27;;;;;;;460.03;331.87;;;;;;;10.98;72.07;97860.63;5029070;28;20290;-64
2021/05/22 01:35:52;;;;;;;453.70;323.70;;;;;;;10.95;72.80;97860.72;5029977;28;20269;-63
2021/05/22 01:38:18;;;;;;;451.90;320.83;;;;;;;10.83;72.41;97845.72;5029470;28;20100;-63
2021/05/22 01:40:43;;;;;;;453.67;322.00;;;;;;;10.86;73.09;97862.75;5034177;28;20037;-63
2021/05/22 01:43:09;;;;;;;452.23;315.33;;;;;;;10.81;73.42;97849.25;5029210;28;20040;-63
2021/05/22 01:45:40;;;;;;;450.23;310.07;;;;;;;10.82;72.93;97838.91;5030790;28;20429;-63
2021/05/22 01:48:06;;;;;;;454.37;319.53;;;;;;;10.78;73.30;97837.34;5029316;28;20167;-64
2021/05/22 01:50:34;;;;;;;452.20;317.17;;;;;;;10.75;73.53;97850.28;5032140;28;20505;-63
2021/05/22 01:53:04;;;;;;;451.20;314.83;;;;;;;10.75;73.86;97857.97;5026072;28;20295;-63
2021/05/22 01:55:30;;;;;;;451.93;311.53;;;;;;;10.72;73.20;97859.78;5030233;28;20629;-62
2021/05/22 01:57:56;;;;;;;461.03;323.07;;;;;;;10.63;73.63;97878.84;5028484;28;20304;-62
2021/05/22 02:00:22;;;;;;;454.10;317.73;;;;;;;10.66;73.63;97883.03;5030777;28;20033;-62
2021/05/22 02:02:58;;;;;;;452.60;313.03;;;;;;;10.73;73.04;97884.53;5029171;28;20279;-63
2021/05/22 02:05:26;;;;;;;452.10;307.87;;;;;;;10.57;73.59;97879.03;5032443;28;20260;-62
2021/05/22 02:07:55;;;;;;;454.27;315.10;;;;;;;10.68;72.36;97899.22;5029793;28;20263;-62
2021/05/22 02:10:21;;;;;;;449.67;304.73;;;;;;;10.60;73.50;97889.22;5032279;28;20284;-63
2021/05/22 02:12:48;;;;;;;451.90;303.67;;;;;;;10.61;73.24;97872.13;5029130;28;20645;-63
2021/05/22 02:15:15;;;;;;;449.63;301.73;;;;;;;10.59;73.42;97866.19;5030074;28;20363;-63
2021/05/22 02:17:44;;;;;;;449.57;303.37;;;;;;;10.58;73.58;97865.34;5030224;28;20623;-63
2021/05/22 02:20:10;;;;;;;449.50;301.03;;;;;;;10.60;72.98;97870.44;5030175;28;20272;-63
2021/05/22 02:22:40;;;;;;;453.37;312.73;;;;;;;10.70;72.63;97870.06;5029839;28;20268;-64
2021/05/22 02:25:06;;;;;;;448.30;301.53;;;;;;;10.76;71.84;97875.03;5030199;28;20298;-63
2021/05/22 02:27:35;;;;;;;454.20;310.80;;;;;;;10.87;70.89;97869.53;5028575;28;20613;-63
2021/05/22 02:30:01;;;;;;;458.07;316.63;;;;;;;10.98;70.31;97860.63;5029212;28;20302;-63
2021/05/22 02:32:28;;;;;;;450.23;304.33;;;;;;;11.05;70.33;97866.38;5030360;28;20276;-63
2021/05/22 02:34:56;;;;;;;450.87;305.80;;;;;;;11.15;69.44;97866.91;5027381;28;20267;-63
2021/05/22 02:37:26;;;;;;;450.57;307.37;;;;;;;11.12;70.03;97882.44;5035402;28;20680;-63
2021/05/22 02:39:55;;;;;;;452.13;304.23;;;;;;;11.07;69.83;97884.28;5030435;28;20375;-63
2021/05/22 02:42:22;;;;;;;451.37;303.87;;;;;;;11.06;69.86;97885.19;5027431;28;20364;-64
2021/05/22 02:44:51;;;;;;;448.83;300.90;;;;;;;11.00;70.27;97886.22;5031772;28;20352;-63
2021/05/22 02:47:19;;;;;;;449.63;305.37;;;;;;;10.95;70.58;97893.22;5026573;28;20301;-63
2021/05/22 02:49:46;;;;;;;451.57;309.77;;;;;;;10.97;70.32;97904.28;5031580;28;20276;-63
2021/05/22 02:52:16;;;;;;;453.30;312.03;;;;;;;10.85;70.63;97899.53;5016123;28;20342;-63
2021/05/22 02:54:43;;;;;;;450.83;307.20;;;;;;;10.88;71.18;97914.81;5026040;28;20545;-64
2021/05/22 02:57:10;;;;;;;453.93;316.63;;;;;;;10.82;71.50;97915.03;5032398;28;20268;-63
2021/05/22 02:59:37;;;;;;;451.80;310.77;;;;;;;10.76;71.91;97913.47;5020141;28;20327;-62
2021/05/22 03:02:03;;;;;;;453.20;313.30;;;;;;;10.75;72.51;97910.97;5028732;28;20282;-61
2021/05/22 03:04:34;;;;;;;453.43;311.60;;;;;;;10.76;72.58;97904.94;5031694;28;20292;-64
2021/05/22 03:07:03;;;;;;;450.10;300.20;;;;;;;10.69;72.24;97898.34;5027871;28;20314;-62
2021/05/22 03:09:29;;;;;;;450.43;305.07;;;;;;;10.75;72.23;97903.25;5026759;28;20280;-61
2021/05/22 03:11:55;;;;;;;449.43;311.20;;;;;;;10.73;72.53;97903.34;5028833;28;20628;-63
2021/05/22 03:14:20;;;;;;;454.47;312.40;;;;;;;10.72;72.75;97903.38;5027514;28;20029;-62
2021/05/22 03:16:46;;;;;;;452.80;311.07;;;;;;;10.75;72.52;97914.38;5027292;28;20659;-62
2021/05/22 03:19:11;;;;;;;449.80;305.87;;;;;;;10.81;72.75;97921.03;5028651;28;20042;-62
2021/05/22 03:21:37;;;;;;;452.47;309.73;;;;;;;10.84;73.14;97937.16;5033389;28;20030;-62
2021/05/22 03:24:04;;;;;;;450.23;306.13;;;;;;;10.88;72.32;97937.91;5027746;28;20121;-62
2021/05/22 03:26:29;;;;;;;454.10;316.70;;;;;;;10.92;72.59;97935.19;5029670;28;20077;-62
2021/05/22 03:28:55;;;;;;;451.10;308.40;;;;;;;11.02;72.13;97924.63;5026542;28;20315;-62
2021/05/22 03:31:20;;;;;;;458.33;323.43;;;;;;;11.05;72.27;97927.94;5029203;28;20033;-62
2021/05/22 03:33:46;;;;;;;462.27;331.30;;;;;;;11.07;72.14;97921.06;5032746;28;20406;-63
2021/05/22 03:36:12;;;;;;;453.43;315.97;;;;;;;11.15;72.35;97928.50;5028653;28;20025;-61
2021/05/22 03:38:37;;;;;;;460.07;332.03;;;;;;;11.21;72.52;97938.53;5027516;28;20044;-61
2021/05/22 03:41:03;;;;;;;456.20;320.73;;;;;;;11.24;72.45;97939.31;5029283;28;20280;-62
2021/05/22 03:43:28;;;;;;;454.67;327.30;;;;;;;11.26;71.78;97926.41;5027433;28;20037;-62
2021/05/22 03:45:54;;;;;;;454.47;325.17;;;;;;;11.25;71.61;97893.94;5028231;28;20029;-62
2021/05/22 03:48:19;;;;;;;456.13;327.73;;;;;;;11.27;71.61;97887.03;5030927;28;20046;-62
2021/05/22 03:50:45;;;;;;;452.97;323.77;;;;;;;11.29;71.11;97877.53;5030334;28;20041;-62
2021/05/22 03:53:11;;;;;;;458.47;331.57;;;;;;;11.37;71.47;97890.97;5027767;28;20026;-62
2021/05/22 03:55:36;;;;;;;457.10;333.17;;;;;;;11.30;71.64;97904.88;5031038;28;20342;-63
2021/05/22 03:58:03;;;;;;;457.43;329.43;;;;;;;11.32;72.27;97934.75;5027472;28;20295;-63
2021/05/22 04:00:28;;;;;;;458.43;333.60;;;;;;;11.33;72.08;97941.53;5027746;28;20032;-63
2021/05/22 04:02:54;;;;;;;473.60;360.70;;;;;;;11.40;70.88;97942.19;5028310;28;20268;-63
2021/05/22 04:05:19;;;;;;;458.47;333.93;;;;;;;11.43;70.61;97934.38;5027536;28;20029;-63
2021/05/22 04:07:45;;;;;;;459.37;333.00;;;;;;;11.44;71.20;97948.91;5027666;28;20135;-62
2021/05/22 04:10:11;;;;;;;456.13;327.40;;;;;;;11.49;70.83;97975.25;5024615;28;20034;-63
2021/05/22 04:12:36;;;;;;;461.30;347.20;;;;;;;11.53;69.19;97981.13;5026633;28;20028;-63
2021/05/22 04:15:03;;;;;;;457.83;337.73;;;;;;;11.58;68.46;97971.53;5030203;28;20109;-63
2021/05/22 04:17:28;;;;;;;455.47;333.93;;;;;;;11.59;68.87;97974.03;5026099;28;20022;-63
2021/05/22 04:19:54;;;;;;;457.57;338.47;;;;;;;11.60;69.30;97998.84;5028747;28;20272;-64
2021/05/22 04:22:20;;;;;;;462.47;348.97;;;;;;;11.60;69.05;97973.16;5028270;28;20049;-64
2021/05/22 04:24:46;;;;;;;460.73;349.80;;;;;;;11.64;69.10;97964.47;5016411;28;20326;-64
2021/05/22 04:27:11;;;;;;;466.10;347.93;;;;;;;11.64;68.71;97953.34;5026729;28;20034;-64
2021/05/22 04:29:36;;;;;;;460.03;339.47;;;;;;;11.64;68.89;97961.88;5017271;28;20049;-64
2021/05/22 04:32:02;;;;;;;462.87;352.03;;;;;;;11.72;69.34;97956.53;5031778;28;20048;-64
2021/05/22 04:34:28;;;;;;;461.10;344.83;;;;;;;11.84;68.80;97966.38;5030653;28;20078;-63
2021/05/22 04:36:53;;;;;;;459.07;345.30;;;;;;;12.07;69.07;97993.84;5029935;28;20035;-64
2021/05/22 04:39:19;;;;;;;458.23;343.60;;;;;;;12.23;68.47;97998.38;5032417;28;20041;-64
2021/05/22 04:41:44;;;;;;;462.47;349.17;;;;;;;12.48;67.13;98005.19;5029839;28;20029;-64
2021/05/22 04:44:10;;;;;;;458.03;343.57;;;;;;;12.60;66.66;98000.44;5033580;28;20036;-63
2021/05/22 04:46:35;;;;;;;460.13;347.20;;;;;;;12.66;65.79;97996.81;5032079;28;20041;-63
2021/05/22 04:49:00;;;;;;;460.00;355.07;;;;;;;12.74;65.33;97995.63;5032307;28;20068;-63
2021/05/22 04:51:26;;;;;;;457.97;344.10;;;;;;;12.69;65.19;97983.81;5029588;28;20263;-63
2021/05/22 04:54:00;;;;;;;460.57;354.43;;;;;;;12.77;64.87;98010.94;5031259;28;20026;-63
2021/05/22 04:56:26;;;;;;;461.13;356.67;;;;;;;12.74;64.88;98029.06;5032549;28;20052;-64
2021/05/22 04:58:51;;;;;;;459.70;353.23;;;;;;;12.76;64.81;98031.59;5031492;28;20292;-63
2021/05/22 05:01:16;;;;;;;478.73;375.87;;;;;;;12.77;64.40;98015.25;5033700;28;20033;-63
2021/05/22 05:03:42;;;;;;;459.57;350.77;;;;;;;12.75;64.89;98010.16;5036393;28;20040;-63
2021/05/22 05:06:08;;;;;;;456.20;341.00;;;;;;;12.81;64.92;98011.69;5031924;28;20299;-64
2021/05/22 05:08:34;;;;;;;460.90;356.23;;;;;;;12.85;64.57;98020.97;5031042;28;20275;-64
2021/05/22 05:10:59;;;;;;;460.90;349.50;;;;;;;12.80;64.39;98041.72;5033210;28;20327;-64
2021/05/22 05:13:25;;;;;;;460.27;351.50;;;;;;;12.77;64.50;98039.22;5033211;28;20349;-63
2021/05/22 05:15:50;;;;;;;459.60;340.57;;;;;;;12.77;64.58;98051.28;5035455;28;20067;-63
2021/05/22 05:18:16;;;;;;;455.40;330.67;;;;;;;12.73;64.77;98047.13;5030828;28;20434;-63
2021/05/22 05:20:41;;;;;;;456.53;337.10;;;;;;;12.67;64.51;98063.63;5031342;28;20104;-64
2021/05/22 05:23:06;;;;;;;455.97;336.93;;;;;;;12.64;64.77;98068.88;5030442;28;20029;-62
2021/05/22 05:25:32;;;;;;;460.07;337.17;;;;;;;12.58;66.10;98061.38;5031278;28;20322;-62
2021/05/22 05:27:58;;;;;;;457.20;337.97;;;;;;;12.50;66.55;98080.56;5034110;28;20044;-61
2021/05/22 05:30:23;;;;;;;456.80;338.40;;;;;;;12.41;67.35;98086.84;5018192;28;20070;-60
2021/05/22 05:32:49;;;;;;;454.97;326.57;;;;;;;12.31;68.03;98080.34;5033161;28;20087;-62
2021/05/22 05:35:14;;;;;;;456.10;332.07;;;;;;;12.17;68.96;98080.00;5030313;28;20362;-62
2021/05/22 05:37:40;;;;;;;451.10;317.50;;;;;;;12.12;69.41;98092.16;5029973;28;20259;-60
2021/05/22 05:40:06;;;;;;;452.77;318.70;;;;;;;12.03;69.66;98110.44;5030979;28;20405;-61
2021/05/22 05:42:32;;;;;;;451.30;314.73;;;;;;;11.99;70.24;98090.88;5032466;28;20337;-61
2021/05/22 05:44:57;;;;;;;450.20;310.30;;;;;;;11.86;70.43;98085.31;5030375;28;20292;-60
2021/05/22 05:47:23;;;;;;;452.20;310.60;;;;;;;11.79;71.29;98099.25;5031183;28;20049;-61
2021/05/22 05:49:48;;;;;;;453.73;316.50;;;;;;;11.75;70.40;98111.34;5028790;28;20090;-60
2021/05/22 05:52:14;;;;;;;452.03;306.20;;;;;;;11.69;71.48;98120.94;5030703;28;20051;-61
2021/05/22 05:54:39;;;;;;;451.17;307.57;;;;;;;11.62;71.20;98125.44;5029557;28;20279;-62
2021/05/22 05:57:05;;;;;;;450.57;299.20;;;;;;;11.65;71.84;98129.63;5033360;28;20417;-64
2021/05/22 05:59:30;;;;;;;452.57;306.80;;;;;;;11.58;72.35;98117.88;5033951;28;20032;-64
2021/05/22 06:01:55;;;;;;;450.67;305.70;;;;;;;11.56;71.41;98138.47;5030523;28;20044;-63
2021/05/22 06:04:21;;;;;;;452.57;300.13;;;;;;;11.56;71.76;98146.16;5017168;28;20036;-63
2021/05/22 06:06:47;;;;;;;451.40;303.63;;;;;;;11.56;71.92;98150.44;5032783;28;20037;-62
2021/05/22 06:09:13;;;;;;;449.20;298.17;;;;;;;11.51;71.72;98142.03;5030498;28;20029;-63
2021/05/22 06:11:38;;;;;;;450.50;305.30;;;;;;;11.50;72.84;98130.13;5030626;28;20425;-63
2021/05/22 06:14:10;;;;;;;449.73;301.87;;;;;;;11.44;72.68;98138.84;5030794;28;20044;-63
2021/05/22 06:16:36;;;;;;;447.43;298.00;;;;;;;11.40;73.50;98142.38;5028508;28;20026;-63
2021/05/22 06:19:01;;;;;;;450.47;301.07;;;;;;;11.38;72.68;98136.44;5029828;28;20263;-63
2021/05/22 06:21:27;;;;;;;451.80;302.10;;;;;;;11.43;73.13;98139.72;5028203;28;20517;-63
2021/05/22 06:23:52;;;;;;;450.37;303.63;;;;;;;11.39;73.71;98128.69;5028434;28;20395;-64
2021/05/22 06:26:18;;;;;;;449.40;304.47;;;;;;;11.45;73.17;98135.38;5030721;28;20060;-62
2021/05/22 06:28:44;;;;;;;450.93;310.10;;;;;;;11.49;72.49;98142.09;5029807;28;20033;-62
2021/05/22 06:31:09;;;;;;;447.73;305.17;;;;;;;11.52;72.06;98136.03;5030742;28;20036;-64
2021/05/22 06:33:35;;;;;;;452.43;317.23;;;;;;;11.63;71.48;98136.53;5026868;28;20063;-63
2021/05/22 06:36:01;;;;;;;450.10;313.00;;;;;;;11.66;70.74;98142.44;5028948;28;20040;-63
2021/05/22 06:38:27;;;;;;;452.80;317.27;;;;;;;11.67;71.37;98149.22;5027226;28;20025;-62
2021/05/22 06:40:53;;;;;;;451.50;306.17;;;;;;;11.61;70.89;98152.00;5029758;28;20370;-62
2021/05/22 06:43:19;;;;;;;453.00;316.17;;;;;;;11.64;71.33;98146.75;5030447;28;20371;-62
2021/05/22 06:45:46;;;;;;;450.73;317.33;;;;;;;11.68;71.63;98145.78;5029139;28;20108;-63
2021/05/22 06:48:13;;;;;;;462.30;362.80;;;;;;;11.70;72.71;98148.31;5031263;28;20445;-63
2021/05/22 06:50:41;;;;;;;453.90;315.80;;;;;;;11.73;72.59;98140.53;5029122;28;20279;-62
2021/05/22 06:53:07;;;;;;;450.13;318.47;;;;;;;11.63;72.20;98144.22;5014814;28;20288;-62
2021/05/22 06:55:33;;;;;;;451.10;322.43;;;;;;;11.61;73.12;98139.16;5028774;28;20362;-62
2021/05/22 06:58:00;;;;;;;453.00;318.90;;;;;;;11.75;72.61;98131.06;5029072;28;20272;-62
2021/05/22 07:00:26;;;;;;;452.47;322.57;;;;;;;11.85;71.98;98138.41;5030036;28;20572;-62
2021/05/22 07:02:52;;;;;;;453.43;326.93;;;;;;;11.89;70.24;98142.56;5027292;28;20344;-62
2021/05/22 07:05:18;;;;;;;457.83;339.10;;;;;;;11.89;69.21;98142.56;5028955;28;20665;-62
2021/05/22 07:07:43;;;;;;;453.37;328.60;;;;;;;12.02;69.46;98139.59;5031096;28;20033;-62
2021/05/22 07:10:13;;;;;;;455.27;337.50;;;;;;;12.21;69.26;98143.25;5029170;28;20034;-63
2021/05/22 07:12:39;;;;;;;454.43;325.30;;;;;;;12.38;68.92;98151.25;5030987;28;20099;-62
2021/05/22 07:15:07;;;;;;;455.80;336.90;;;;;;;12.57;69.38;98161.72;5029456;28;20264;-62
2021/05/22 07:17:33;;;;;;;460.07;351.13;;;;;;;12.70;69.49;98157.81;5029462;28;20029;-62
2021/05/22 07:19:59;;;;;;;459.53;353.90;;;;;;;12.77;68.56;98154.97;5032603;28;20351;-62
2021/05/22 07:22:24;;;;;;;461.87;363.03;;;;;;;12.86;68.16;98164.09;5030795;28;20022;-63
2021/05/22 07:24:50;;;;;;;463.87;366.87;;;;;;;13.00;67.76;98161.88;5031916;28;20326;-61
2021/05/22 07:27:16;;;;;;;463.03;369.47;;;;;;;13.03;65.71;98163.50;5033282;28;20025;-63
2021/05/22 07:29:45;;;;;;;459.43;372.10;;;;;;;12.93;62.87;98157.88;5013102;28;20279;-62
2021/05/22 07:32:11;;;;;;;461.87;375.77;;;;;;;13.03;63.61;98156.63;5032836;28;20047;-63
2021/05/22 07:34:36;;;;;;;460.37;370.90;;;;;;;13.11;63.00;98156.41;5036470;28;20036;-62
2021/05/22 07:37:02;;;;;;;463.97;385.60;;;;;;;13.23;64.02;98151.63;5032942;28;20152;-62
2021/05/22 07:39:27;;;;;;;468.37;396.53;;;;;;;13.14;64.37;98154.53;5032094;28;20386;-62
2021/05/22 07:41:52;;;;;;;465.80;394.70;;;;;;;13.25;62.45;98151.56;5033239;28;20022;-62
2021/05/22 07:44:18;;;;;;;466.03;395.77;;;;;;;13.35;62.63;98155.47;5031018;28;20100;-62
2021/05/22 07:46:43;;;;;;;468.43;404.37;;;;;;;13.39;61.70;98154.47;5036065;28;20103;-62
2021/05/22 07:49:09;;;;;;;466.50;395.93;;;;;;;13.31;61.10;98156.50;5036891;28;20127;-62
2021/05/22 07:51:34;;;;;;;466.37;398.17;;;;;;;13.39;61.78;98158.78;5038582;28;20021;-62
2021/05/22 07:54:00;;;;;;;466.73;400.27;;;;;;;13.39;59.76;98159.63;5034086;28;20013;-62
2021/05/22 07:56:26;;;;;;;470.10;410.87;;;;;;;13.38;60.97;98159.66;5033722;28;20084;-62
2021/05/22 07:58:51;;;;;;;472.80;411.60;;;;;;;13.33;59.80;98157.25;5031511;28;20025;-62
2021/05/22 08:01:17;;;;;;;472.27;411.50;;;;;;;13.43;59.35;98156.03;5035940;28;20053;-62
2021/05/22 08:03:42;;;;;;;470.43;410.03;;;;;;;13.31;61.08;98150.50;5033810;28;20033;-62
2021/05/22 08:06:08;;;;;;;469.60;406.50;;;;;;;13.38;58.39;98150.19;5041029;28;20025;-62
2021/05/22 08:08:33;;;;;;;469.77;406.20;;;;;;;13.32;57.98;98149.59;5037447;28;20064;-62
2021/05/22 08:10:58;;;;;;;470.10;411.23;;;;;;;13.37;58.05;98153.66;5034628;28;20413;-63
2021/05/22 08:13:28;;;;;;;468.50;410.70;;;;;;;13.41;58.54;98150.06;5034315;28;20029;-62
2021/05/22 08:15:54;;;;;;;466.53;397.70;;;;;;;13.43;58.54;98148.28;5039119;28;20025;-62
2021/05/22 08:18:19;;;;;;;469.37;415.37;;;;;;;13.49;57.21;98158.38;5038893;28;20044;-63
2021/05/22 08:20:44;;;;;;;470.50;417.67;;;;;;;13.56;57.09;98167.53;5044801;28;20123;-63
2021/05/22 08:23:10;;;;;;;473.20;418.70;;;;;;;13.71;57.29;98161.78;5039054;28;20309;-63
2021/05/22 08:25:35;;;;;;;469.67;411.20;;;;;;;13.84;57.14;98166.44;5037665;28;20034;-63
2021/05/22 08:28:01;;;;;;;473.37;421.13;;;;;;;13.92;57.09;98167.00;5035171;28;20029;-63
2021/05/22 08:30:26;;;;;;;469.70;410.87;;;;;;;13.97;56.67;98175.38;5041022;28;20036;-63
2021/05/22 08:32:52;;;;;;;487.53;434.17;;;;;;;13.96;55.81;98187.41;5036397;28;20079;-63
2021/05/22 08:35:17;;;;;;;520.83;465.27;;;;;;;14.04;55.16;98192.28;5018344;28;20302;-64
2021/05/22 08:37:43;;;;;;;499.17;445.50;;;;;;;14.09;55.75;98193.75;5013621;28;20030;-64
2021/05/22 08:40:09;;;;;;;500.37;447.30;;;;;;;14.24;54.97;98186.31;5031188;28;20041;-63
2021/05/22 08:42:35;;;;;;;504.97;451.70;;;;;;;14.11;55.80;98188.56;5031715;28;20433;-62
2021/05/22 08:45:12;;;;;;;499.03;446.03;;;;;;;14.15;55.08;98184.94;5037434;28;20025;-63
2021/05/22 08:47:38;;;;;;;495.83;443.10;;;;;;;14.25;55.51;98195.75;5040082;28;20153;-63
2021/05/22 08:50:10;;;;;;;493.67;440.77;;;;;;;14.25;55.44;98181.13;5040810;28;20096;-64
2021/05/22 08:52:36;;;;;;;505.53;452.37;;;;;;;14.22;55.24;98190.69;5042659;28;20053;-63
2021/05/22 08:55:04;;;;;;;510.93;457.80;;;;;;;14.31;54.14;98178.25;5033975;28;20026;-63
2021/05/22 08:57:29;;;;;;;511.10;457.83;;;;;;;14.40;53.49;98184.81;5037194;28;20302;-63
2021/05/22 08:59:55;;;;;;;508.53;455.53;;;;;;;14.45;53.53;98196.63;5022734;28;20037;-63
2021/05/22 09:02:23;;;;;;;506.93;453.87;;;;;;;14.59;53.52;98193.47;5034600;28;20036;-63
2021/05/22 09:05:07;;;;;;;521.67;468.33;;;;;;;14.71;53.95;98186.97;5035392;28;20132;-62
2021/05/22 09:07:35;;;;;;;507.83;454.70;;;;;;;14.69;54.18;98183.59;5032427;28;20098;-63
2021/05/22 09:10:06;;;;;;;513.47;460.43;;;;;;;14.75;55.48;98196.25;5035321;28;20083;-64
2021/05/22 09:12:36;;;;;;;524.47;471.10;;;;;;;14.77;53.70;98203.00;5033593;28;20043;-64
2021/05/22 09:15:07;;;;;;;523.07;467.27;;;;;;;14.63;54.99;98210.50;5035312;28;20040;-63
2021/05/22 09:17:33;;;;;;;519.87;465.87;;;;;;;14.71;54.09;98211.03;5031919;28;20025;-63
2021/05/22 09:20:31;;;;;;;533.47;479.03;;;;;;;14.82;54.80;98213.13;5037615;28;20087;-63
2021/05/22 09:23:04;;;;;;;514.50;461.23;;;;;;;14.77;51.88;98218.50;5006543;28;20045;-62
2021/05/22 09:25:31;;;;;;;532.27;478.47;;;;;;;14.87;52.72;98214.63;5034158;28;20025;-62
2021/05/22 09:27:57;;;;;;;529.93;476.27;;;;;;;14.85;53.58;98216.41;5034372;28;20581;-63
2021/05/22 09:30:25;;;;;;;536.90;483.20;;;;;;;14.72;51.94;98219.59;5030635;28;20319;-63
2021/05/22 09:32:53;;;;;;;536.07;482.13;;;;;;;14.82;52.56;98223.44;5034955;28;20043;-62
2021/05/22 09:35:18;;;;;;;543.20;488.83;;;;;;;14.80;52.93;98231.28;5030854;28;20396;-62
2021/05/22 09:37:47;;;;;;;532.57;478.80;;;;;;;14.91;51.89;98234.22;5031683;28;20033;-62
2021/05/22 09:40:16;;;;;;;531.80;478.30;;;;;;;14.96;51.48;98231.47;5026308;28;20021;-62
2021/05/22 09:42:42;;;;;;;519.67;466.23;;;;;;;14.68;51.14;98236.97;5030782;28;20037;-63
2021/05/22 09:45:30;;;;;;;515.33;462.23;;;;;;;14.46;53.97;98229.28;5032089;28;20033;-62
2021/05/22 09:47:59;;;;;;;513.13;459.80;;;;;;;14.39;53.01;98224.41;5030816;28;20067;-63
2021/05/22 09:50:36;;;;;;;506.57;453.07;;;;;;;14.38;54.10;98221.00;5030485;28;20032;-62
2021/05/22 09:53:19;;;;;;;502.70;449.63;;;;;;;14.47;54.81;98225.75;5030326;28;20323;-61
2021/05/22 09:56:11;;;;;;;508.50;455.00;;;;;;;14.46;55.31;98228.44;5016178;28;20025;-62
2021/05/22 09:58:43;;;;;;;509.93;456.77;;;;;;;14.43;56.61;98231.94;5032784;28;20043;-62
2021/05/22 10:01:09;;;;;;;515.60;462.17;;;;;;;14.37;56.87;98228.78;5031231;28;20036;-62
2021/05/22 10:03:35;;;;;;;511.50;458.13;;;;;;;14.42;56.14;98229.44;5029539;28;20157;-62
2021/05/22 10:06:00;;;;;;;516.07;462.80;;;;;;;14.43;54.90;98226.78;5027451;28;20131;-61
2021/05/22 10:08:26;;;;;;;513.33;459.90;;;;;;;14.51;55.21;98234.25;5031749;28;20037;-62
2021/05/22 10:10:56;;;;;;;506.50;453.30;;;;;;;14.47;53.82;98232.69;5028708;28;20493;-62
2021/05/22 10:13:22;;;;;;;514.70;461.13;;;;;;;14.60;52.69;98239.84;5031120;28;20102;-63
2021/05/22 10:15:50;;;;;;;512.13;459.07;;;;;;;14.38;53.68;98236.47;5033607;28;20040;-62
2021/05/22 10:18:17;;;;;;;516.10;462.70;;;;;;;14.42;54.48;98255.25;5030375;28;20042;-62
2021/05/22 10:20:43;;;;;;;514.67;461.23;;;;;;;14.42;53.96;98248.34;5031572;28;20025;-62
2021/05/22 10:23:09;;;;;;;515.17;461.80;;;;;;;14.52;53.17;98249.63;5030896;28;20037;-62
2021/05/22 10:25:35;;;;;;;511.80;458.63;;;;;;;14.47;54.04;98246.41;5029765;28;20048;-60
2021/05/22 10:28:03;;;;;;;499.27;446.20;;;;;;;14.56;54.04;98258.09;5034303;28;20034;-60
2021/05/22 10:30:28;;;;;;;500.27;447.30;;;;;;;14.52;53.37;98261.69;5031844;28;20036;-61
2021/05/22 10:33:05;;;;;;;515.67;462.10;;;;;;;14.49;52.49;98266.97;5027793;28;20036;-60
2021/05/22 10:35:47;;;;;;;499.77;446.63;;;;;;;14.64;52.73;98256.88;5031285;28;20036;-61
2021/05/22 10:38:35;;;;;;;498.33;445.67;;;;;;;14.39;53.46;98260.50;5029819;28;20120;-62
2021/05/22 10:41:08;;;;;;;499.67;446.67;;;;;;;14.40;53.77;98262.19;5027804;28;20030;-61
2021/05/22 10:43:50;;;;;;;512.00;458.57;;;;;;;14.52;53.49;98267.69;5031403;28;20441;-62
2021/05/22 10:46:21;;;;;;;515.40;461.83;;;;;;;14.36;54.69;98266.63;5028947;28;20117;-62
2021/05/22 10:48:49;;;;;;;514.93;461.73;;;;;;;14.46;53.90;98270.53;5028140;28;20057;-61
2021/05/22 10:51:23;;;;;;;521.03;467.47;;;;;;;14.56;53.56;98274.41;5029484;28;20049;-61
2021/05/22 10:53:57;;;;;;;510.40;456.98;;;;;;;14.42;54.18;98275.88;5029203;28;20286;-63
2021/05/22 10:56:23;;;;;;;514.43;461.30;;;;;;;14.14;54.32;98276.91;5029746;28;20395;-62
2021/05/22 10:58:57;;;;;;;499.20;446.17;;;;;;;14.15;56.26;98280.34;5028171;28;20045;-62
2021/05/22 11:01:22;;;;;;;506.80;453.50;;;;;;;14.06;56.35;98278.13;5031934;28;20104;-63